Weather at Aneityum Airport

Public forecast

Using degrees Celsius for public forecast. Weather courtesy of forecast.io.

Current aviation weather report (METAR) for Aneityum Airport

Report is more than 6 hours old.

2024/04/13 03:00 (retrieved 10 hours ago)

NVVA 130300Z 12006KT 9999 SCT025 29/23 Q1013

Aviation forecast (TAF) for Aneityum Airport

2024/04/13 12:00 (retrieved 1 hour ago)

TAF NVVA 131100Z 1312/1412 VRB04KT 9999 SCT018 OVC040 INTER 1312/1318 7000 RA SCT008 BKN016 OVC038